Time;durP1;ratioP1;P1;durP2;ratioP2;P2;SDS_P1;SDS_P2;PMS_P1;PMS_P2;Temp;Humidity;BMP_temperature;BMP_pressure;BME280_temperature;BME280_humidity;BME280_pressure;Samples;Min_cycle;Max_cycle;Signal;HPM_P1;HPM_P2
2022/12/15 00:39:12;;;;;;;3.95;3.60;;;17.50;50.90;;;;;;4994939;28;20688;-67
2022/12/15 00:41:38;;;;;;;3.95;3.60;;;17.50;50.90;;;;;;4994738;28;20220;-67
2022/12/15 00:44:04;;;;;;;4.35;3.95;;;17.50;50.90;;;;;;4996154;28;20200;-66
2022/12/15 01:22:08;;;;;;;5.43;3.53;;;17.50;50.90;;;;;;4995218;28;20175;-67
2022/12/15 01:24:34;;;;;;;3.90;3.50;;;17.50;50.90;;;;;;4995523;28;20205;-67
2022/12/15 01:27:00;;;;;;;4.13;3.72;;;17.50;50.90;;;;;;4977003;28;20275;-67
2022/12/15 01:29:25;;;;;;;4.72;3.38;;;17.50;51.00;;;;;;4994289;28;20264;-66
2022/12/15 01:31:51;;;;;;;3.30;3.00;;;17.50;51.00;;;;;;4977670;28;20189;-67
2022/12/15 01:34:18;;;;;;;3.72;3.42;;;17.40;50.90;;;;;;4995342;28;20192;-67
2022/12/15 01:36:45;;;;;;;3.72;3.35;;;17.50;51.00;;;;;;4977829;28;20191;-67
2022/12/15 01:39:11;;;;;;;3.45;3.15;;;17.40;50.90;;;;;;4995289;28;20216;-67
2022/12/15 01:41:37;;;;;;;3.67;3.38;;;17.50;51.00;;;;;;4994026;28;20189;-67
2022/12/15 01:44:19;;;;;;;3.70;3.33;;;17.50;51.00;;;;;;4993778;28;20241;-67
2022/12/15 01:46:49;;;;;;;4.25;3.15;;;17.50;50.90;;;;;;4993938;28;20277;-67
2022/12/15 01:49:22;;;;;;;3.53;3.17;;;17.50;50.90;;;;;;5010408;28;20192;-66
2022/12/15 01:51:54;;;;;;;3.40;3.10;;;17.50;51.00;;;;;;4977439;28;20196;-67
2022/12/15 01:54:29;;;;;;;3.15;2.85;;;17.50;50.90;;;;;;4993732;28;20177;-67
2022/12/15 01:57:10;;;;;;;3.38;3.08;;;17.50;50.90;;;;;;4994880;28;20165;-67
2022/12/15 01:59:42;;;;;;;4.35;3.00;;;17.50;50.90;;;;;;4977716;28;20177;-67
2022/12/15 02:02:10;;;;;;;3.20;2.90;;;17.50;50.90;;;;;;4977167;28;20192;-66
2022/12/15 02:04:36;;;;;;;3.15;2.85;;;17.50;50.90;;;;;;4993503;28;20204;-66
2022/12/15 02:07:03;;;;;;;3.03;2.67;;;17.50;50.90;;;;;;4993821;28;20204;-67
2022/12/15 02:09:30;;;;;;;3.33;3.03;;;17.50;50.90;;;;;;4994647;28;20173;-66
2022/12/15 02:12:17;;;;;;;3.40;3.10;;;17.50;51.00;;;;;;4976960;28;20184;-67
2022/12/15 02:15:09;;;;;;;3.25;2.95;;;17.40;50.90;;;;;;4994352;28;20212;-67
2022/12/15 02:18:09;;;;;;;3.40;3.00;;;17.40;50.90;;;;;;4999095;28;20177;-67
2022/12/15 02:21:03;;;;;;;3.13;2.92;;;17.50;50.90;;;;;;4976884;28;20268;-67
2022/12/15 02:24:05;;;;;;;3.15;2.85;;;17.40;50.90;;;;;;4993080;28;20701;-67
2022/12/15 02:26:55;;;;;;;2.80;2.60;;;17.50;50.90;;;;;;4993330;28;20243;-67
2022/12/15 02:30:11;;;;;;;2.95;2.65;;;17.50;50.90;;;;;;4993379;28;20284;-66
2022/12/15 02:33:12;;;;;;;3.25;2.95;;;17.50;50.90;;;;;;4977080;28;20236;-67
2022/12/15 02:35:58;;;;;;;3.50;3.20;;;17.50;50.90;;;;;;4976665;28;20303;-66
2022/12/15 02:38:40;;;;;;;2.78;2.58;;;17.40;50.80;;;;;;4992292;28;20672;-67
2022/12/15 02:41:36;;;;;;;3.05;2.67;;;17.50;50.90;;;;;;4992939;28;20177;-67
2022/12/15 02:44:13;;;;;;;3.25;2.90;;;17.50;50.90;;;;;;4992692;28;20208;-66
2022/12/15 02:47:20;;;;;;;2.60;2.40;;;17.50;50.90;;;;;;4992929;28;20276;-67
2022/12/15 02:50:40;;;;;;;3.10;2.80;;;17.50;51.00;;;;;;4976332;28;20196;-67
2022/12/15 02:54:01;;;;;;;2.90;2.60;;;17.40;50.90;;;;;;4992615;28;20205;-67
2022/12/15 02:57:02;;;;;;;2.50;2.30;;;17.50;51.00;;;;;;4992463;28;20204;-67
2022/12/15 02:59:54;;;;;;;2.50;2.30;;;17.50;50.90;;;;;;4992517;28;20211;-66
2022/12/15 03:02:24;;;;;;;2.65;2.45;;;17.50;50.90;;;;;;4992201;28;20263;-67
2022/12/15 03:04:50;;;;;;;2.50;2.30;;;17.50;50.90;;;;;;4988615;28;20206;-67
2022/12/15 03:07:16;;;;;;;2.50;2.30;;;17.40;50.80;;;;;;4972973;28;20170;-67
2022/12/15 03:09:41;;;;;;;2.85;2.65;;;17.50;50.90;;;;;;4969632;28;20665;-67
2022/12/15 03:12:09;;;;;;;2.30;2.10;;;17.50;50.90;;;;;;4975742;28;20188;-67
2022/12/15 03:14:35;;;;;;;2.67;2.47;;;17.40;50.90;;;;;;4976227;28;20216;-67
2022/12/15 03:17:02;;;;;;;2.70;2.50;;;17.50;50.90;;;;;;4992257;28;20656;-67
2022/12/15 03:19:28;;;;;;;2.50;2.28;;;17.50;50.90;;;;;;4976272;28;20192;-67
2022/12/15 03:21:55;;;;;;;2.40;2.20;;;17.50;50.90;;;;;;4993247;28;20326;-67
2022/12/15 03:24:21;;;;;;;2.25;2.05;;;17.50;50.90;;;;;;4975869;28;20224;-67
2022/12/15 03:26:50;;;;;;;2.83;2.63;;;17.50;50.90;;;;;;4992052;28;20176;-67
2022/12/15 03:29:17;;;;;;;2.50;2.30;;;17.50;50.90;;;;;;4992078;28;20192;-67
2022/12/15 03:31:43;;;;;;;2.17;2.05;;;17.50;50.90;;;;;;4991732;28;20185;-67
2022/12/15 03:34:09;;;;;;;2.53;2.33;;;17.50;50.90;;;;;;4992141;28;20188;-67
2022/12/15 03:36:35;;;;;;;2.65;2.45;;;17.50;50.90;;;;;;4992045;28;20189;-67
2022/12/15 03:39:01;;;;;;;2.67;2.47;;;17.50;50.90;;;;;;4992232;28;20199;-66
2022/12/15 03:41:26;;;;;;;2.30;2.20;;;17.50;50.90;;;;;;4991992;28;20189;-67
2022/12/15 03:43:52;;;;;;;2.50;2.30;;;17.40;50.90;;;;;;4975804;28;20227;-67
2022/12/15 03:46:18;;;;;;;2.47;2.28;;;17.50;50.90;;;;;;5015554;22;20251;-69
2022/12/15 03:48:44;;;;;;;2.35;2.15;;;17.50;50.90;;;;;;4991760;28;20189;-69
2022/12/15 03:51:09;;;;;;;2.35;2.15;;;17.50;50.90;;;;;;4991229;28;20189;-70
2022/12/15 03:53:35;;;;;;;2.38;2.17;;;17.40;50.80;;;;;;4993067;28;20181;-70
2022/12/15 03:56:01;;;;;;;2.70;2.50;;;17.50;50.90;;;;;;4975431;28;20208;-69
2022/12/15 03:58:27;;;;;;;2.30;2.10;;;17.50;50.90;;;;;;4975606;28;20189;-70
2022/12/15 04:00:54;;;;;;;2.15;2.05;;;17.50;50.90;;;;;;4975286;28;20199;-70
2022/12/15 04:03:20;;;;;;;2.20;2.00;;;17.50;50.90;;;;;;4991427;28;20649;-70
2022/12/15 04:05:46;;;;;;;2.55;2.35;;;17.50;50.90;;;;;;4991658;28;20308;-70
2022/12/15 04:08:12;;;;;;;2.33;2.22;;;17.50;50.90;;;;;;4975481;28;20220;-69
2022/12/15 04:10:38;;;;;;;2.03;1.92;;;17.50;50.90;;;;;;4991454;28;20211;-70
2022/12/15 04:13:08;;;;;;;2.63;2.30;;;17.50;50.90;;;;;;4991578;28;20196;-69
2022/12/15 04:15:36;;;;;;;2.30;2.20;;;17.50;50.90;;;;;;4975163;28;20307;-70
2022/12/15 04:18:05;;;;;;;2.10;2.00;;;17.50;50.90;;;;;;4991806;28;20197;-70
2022/12/15 04:20:32;;;;;;;2.10;2.00;;;17.50;51.00;;;;;;4991583;28;20185;-69
2022/12/15 04:22:58;;;;;;;2.20;2.00;;;17.50;50.90;;;;;;4991450;28;20228;-69
2022/12/15 05:31:53;;;;;;;2.15;1.95;;;17.50;51.00;;;;;;5010282;28;20640;-70
2022/12/15 05:34:25;;;;;;;2.80;2.03;;;17.50;50.90;;;;;;4994063;28;20208;-69
2022/12/15 05:36:56;;;;;;;2.17;2.00;;;17.50;51.00;;;;;;4993858;28;20283;-69
2022/12/15 05:39:24;;;;;;;1.95;1.85;;;17.50;51.00;;;;;;4993924;28;20193;-69
2022/12/15 05:41:52;;;;;;;1.92;1.83;;;17.50;51.10;;;;;;4993787;28;20243;-70
2022/12/15 05:44:18;;;;;;;2.00;1.90;;;17.50;51.20;;;;;;4993807;28;20212;-70
2022/12/15 05:46:45;;;;;;;2.00;1.73;;;17.50;51.20;;;;;;4994109;28;20201;-70
2022/12/15 05:49:14;;;;;;;1.92;1.83;;;17.50;51.20;;;;;;4993844;28;20188;-70
2022/12/15 05:51:42;;;;;;;2.17;2.08;;;17.50;51.20;;;;;;4993547;28;20275;-71
2022/12/15 05:54:11;;;;;;;2.40;2.20;;;17.50;51.20;;;;;;5010096;28;20283;-70
2022/12/15 05:56:37;;;;;;;2.00;1.90;;;17.50;51.20;;;;;;4993517;28;20295;-71
2022/12/15 05:59:04;;;;;;;2.42;2.22;;;17.50;51.20;;;;;;4993690;28;20268;-71
2022/12/15 06:01:30;;;;;;;1.80;1.70;;;17.50;51.20;;;;;;4993469;28;20185;-71
2022/12/15 06:03:58;;;;;;;2.10;2.00;;;17.40;51.10;;;;;;4993699;28;20213;-71
2022/12/15 06:06:24;;;;;;;2.20;2.00;;;17.50;51.20;;;;;;4993406;28;20205;-71
2022/12/15 06:08:51;;;;;;;1.95;1.85;;;17.50;51.20;;;;;;4993534;28;20200;-70
2022/12/15 06:11:19;;;;;;;2.15;2.05;;;17.50;51.20;;;;;;4993282;28;20173;-71
2022/12/15 06:13:45;;;;;;;2.78;2.50;;;17.50;51.20;;;;;;5002011;28;20269;-71
2022/12/15 06:16:18;;;;;;;2.22;2.05;;;17.50;51.20;;;;;;5009340;28;20258;-71
2022/12/15 06:18:51;;;;;;;2.50;2.30;;;17.50;51.20;;;;;;4980161;28;20181;-71
2022/12/15 06:21:22;;;;;;;2.30;2.13;;;17.50;51.20;;;;;;4974634;28;20227;-71
2022/12/15 06:23:48;;;;;;;2.40;2.20;;;17.50;51.20;;;;;;4973574;28;20739;-71
2022/12/15 06:26:34;;;;;;;2.50;2.30;;;17.40;51.10;;;;;;4974726;28;20205;-71
2022/12/15 06:29:02;;;;;;;2.53;2.33;;;17.40;51.80;;;;;;4973724;28;20170;-71
2022/12/15 06:31:30;;;;;;;2.60;2.40;;;17.50;51.20;;;;;;4973312;28;20213;-71
2022/12/15 06:33:57;;;;;;;2.60;2.40;;;17.50;51.30;;;;;;4974785;28;20182;-71
2022/12/15 06:36:23;;;;;;;2.90;2.70;;;17.50;51.30;;;;;;4973832;28;20232;-70
2022/12/15 06:38:51;;;;;;;2.72;2.53;;;17.50;51.30;;;;;;4976996;28;20197;-71
2022/12/15 06:41:20;;;;;;;2.25;2.10;;;17.40;51.20;;;;;;4992744;28;20208;-70
2022/12/15 06:43:51;;;;;;;2.55;2.35;;;17.50;51.20;;;;;;4992891;28;20235;-71
2022/12/15 06:46:18;;;;;;;3.45;2.45;;;17.50;51.20;;;;;;4992808;28;20209;-71
2022/12/15 06:48:45;;;;;;;3.20;2.90;;;17.50;51.30;;;;;;4994191;28;20188;-71
2022/12/15 06:51:12;;;;;;;3.60;3.30;;;17.50;51.30;;;;;;4992409;28;20188;-70
2022/12/15 06:53:40;;;;;;;3.08;2.60;;;17.50;51.20;;;;;;4992555;28;20180;-71
2022/12/15 06:56:15;;;;;;;3.08;2.88;;;17.40;51.20;;;;;;5008662;28;20692;-70
2022/12/15 06:58:41;;;;;;;3.20;2.90;;;17.50;51.30;;;;;;4992565;28;20180;-70
2022/12/15 07:01:07;;;;;;;3.38;3.08;;;17.40;51.20;;;;;;4992523;28;20187;-71
2022/12/15 07:03:34;;;;;;;3.42;3.13;;;17.50;51.30;;;;;;4992354;28;20209;-71
2022/12/15 07:06:07;;;;;;;3.22;2.90;;;17.40;51.10;;;;;;4992291;28;20263;-70
2022/12/15 07:08:33;;;;;;;3.47;3.17;;;17.40;51.80;;;;;;4992664;28;20181;-69
2022/12/15 07:11:03;;;;;;;3.30;2.97;;;17.40;51.20;;;;;;4992498;28;20228;-70
2022/12/15 07:13:29;;;;;;;3.30;3.00;;;17.40;51.20;;;;;;4992354;28;20184;-70
2022/12/15 07:15:59;;;;;;;3.63;3.33;;;17.40;51.20;;;;;;4992062;28;20197;-71
2022/12/15 07:18:25;;;;;;;2.88;2.67;;;17.40;51.20;;;;;;4992417;28;20172;-71
2022/12/15 07:20:51;;;;;;;3.72;3.10;;;17.40;51.20;;;;;;4992233;28;20204;-70
2022/12/15 07:23:17;;;;;;;3.53;3.10;;;17.40;51.20;;;;;;4992477;28;20296;-70
2022/12/15 07:25:43;;;;;;;3.42;3.10;;;17.40;51.80;;;;;;4991785;28;20205;-70
2022/12/15 07:28:10;;;;;;;3.40;3.10;;;17.40;51.20;;;;;;4991958;28;20169;-70
2022/12/15 07:30:36;;;;;;;3.83;3.53;;;17.40;51.20;;;;;;4992050;28;20236;-70
2022/12/15 07:33:02;;;;;;;3.50;3.20;;;17.40;51.20;;;;;;4991889;28;20188;-70
2022/12/15 07:35:29;;;;;;;3.35;3.05;;;17.40;51.10;;;;;;4975632;28;20201;-70
2022/12/15 07:37:55;;;;;;;4.05;3.35;;;17.50;51.20;;;;;;4991845;28;20575;-70
2022/12/15 07:40:21;;;;;;;3.90;3.50;;;17.40;51.20;;;;;;4991920;28;20176;-69
2022/12/15 07:42:47;;;;;;;3.80;3.17;;;17.40;51.20;;;;;;4992598;28;20228;-70
2022/12/15 07:45:13;;;;;;;3.45;3.10;;;17.40;51.20;;;;;;4992591;28;20217;-70
2022/12/15 07:47:39;;;;;;;3.80;3.50;;;17.40;51.20;;;;;;4975385;28;20184;-70
2022/12/15 07:50:06;;;;;;;3.72;3.33;;;17.40;51.10;;;;;;4991351;28;20719;-70
2022/12/15 07:52:32;;;;;;;4.80;3.67;;;17.40;51.10;;;;;;4991038;28;20234;-70
2022/12/15 07:54:58;;;;;;;3.90;3.45;;;17.40;51.20;;;;;;4992455;28;20240;-70
2022/12/15 07:57:23;;;;;;;4.10;3.70;;;17.40;51.10;;;;;;4991258;28;20207;-70
2022/12/15 07:59:50;;;;;;;4.30;3.90;;;17.40;51.10;;;;;;4991260;28;20230;-70
2022/12/15 08:02:16;;;;;;;4.78;3.95;;;17.40;51.20;;;;;;4991161;28;20283;-70
2022/12/15 08:04:42;;;;;;;4.70;4.30;;;17.40;51.20;;;;;;4992306;28;20760;-70
2022/12/15 08:07:09;;;;;;;4.45;4.05;;;17.40;51.20;;;;;;4991119;28;20185;-69
2022/12/15 08:09:36;;;;;;;4.15;3.75;;;17.40;51.10;;;;;;4991414;28;20192;-70
2022/12/15 08:12:02;;;;;;;4.43;4.05;;;17.40;51.20;;;;;;4991100;28;20185;-70
2022/12/15 08:14:28;;;;;;;4.30;3.90;;;17.40;51.20;;;;;;4991115;28;20200;-70
2022/12/15 08:16:54;;;;;;;3.90;3.60;;;17.40;51.20;;;;;;4991197;28;20212;-70
2022/12/15 08:19:20;;;;;;;4.25;3.85;;;17.40;51.20;;;;;;4991138;28;20283;-70
2022/12/15 08:21:46;;;;;;;4.63;4.22;;;17.40;51.10;;;;;;4990874;28;20315;-70
2022/12/15 08:24:13;;;;;;;4.50;4.10;;;17.40;51.20;;;;;;4980531;28;20292;-70
2022/12/15 08:26:41;;;;;;;4.72;4.32;;;17.40;51.10;;;;;;4955660;28;20217;-70
2022/12/15 08:29:11;;;;;;;5.95;4.65;;;17.40;51.70;;;;;;4971544;28;20186;-70
2022/12/15 08:31:38;;;;;;;5.25;4.20;;;17.50;51.20;;;;;;4955445;28;20668;-70
2022/12/15 08:34:05;;;;;;;5.35;4.65;;;17.50;51.20;;;;;;4972731;28;20265;-70
2022/12/15 08:36:31;;;;;;;5.30;4.80;;;17.40;51.10;;;;;;4973026;28;20241;-70
2022/12/15 08:39:00;;;;;;;4.65;4.22;;;17.40;51.10;;;;;;4959774;28;20202;-70
2022/12/15 08:41:29;;;;;;;4.90;4.50;;;17.40;51.10;;;;;;4993611;28;20275;-70
2022/12/15 08:43:58;;;;;;;4.53;4.13;;;17.50;51.20;;;;;;4978546;28;20232;-70
2022/12/15 08:46:30;;;;;;;4.18;3.78;;;17.40;51.10;;;;;;4994545;28;20224;-70
2022/12/15 08:48:57;;;;;;;4.90;4.40;;;17.50;51.20;;;;;;4978209;28;20212;-70
2022/12/15 08:51:27;;;;;;;6.38;4.38;;;17.40;51.10;;;;;;4994208;28;20185;-70
2022/12/15 08:53:54;;;;;;;5.10;4.32;;;17.40;51.10;;;;;;5010712;28;20188;-70
2022/12/15 08:56:22;;;;;;;4.90;4.18;;;17.50;51.20;;;;;;5014481;28;20223;-70
2022/12/15 08:58:49;;;;;;;4.57;4.18;;;17.40;51.10;;;;;;4978280;28;20181;-70
2022/12/15 09:01:22;;;;;;;4.47;4.00;;;17.50;51.20;;;;;;4993999;28;20185;-70
2022/12/15 09:03:49;;;;;;;4.65;4.25;;;17.50;51.20;;;;;;5011069;28;20216;-70
2022/12/15 09:06:25;;;;;;;4.88;4.47;;;17.50;51.20;;;;;;4994301;28;20205;-69
2022/12/15 09:08:55;;;;;;;5.00;4.50;;;17.50;51.20;;;;;;4978143;28;20194;-69
2022/12/15 09:11:22;;;;;;;5.13;4.72;;;17.50;51.20;;;;;;4977804;28;20235;-70
2022/12/15 09:13:48;;;;;;;5.70;5.20;;;17.40;51.10;;;;;;4994009;28;20185;-70
2022/12/15 09:16:16;;;;;;;5.13;4.68;;;17.50;51.10;;;;;;4994061;28;20307;-70
2022/12/15 09:18:45;;;;;;;4.90;4.40;;;17.40;51.10;;;;;;4977680;28;20234;-70
2022/12/15 09:21:12;;;;;;;4.32;3.92;;;17.40;51.10;;;;;;4993709;28;20193;-70
2022/12/15 09:23:39;;;;;;;4.93;4.43;;;17.40;51.00;;;;;;4977623;28;20217;-70
2022/12/15 09:26:13;;;;;;;4.88;4.40;;;17.50;51.10;;;;;;4993834;28;20251;-70
2022/12/15 09:28:40;;;;;;;5.00;4.60;;;17.50;51.20;;;;;;4977664;28;20192;-70
2022/12/15 09:31:20;;;;;;;5.40;4.90;;;17.50;51.20;;;;;;4993568;28;20193;-70
2022/12/15 09:33:47;;;;;;;5.07;4.60;;;17.50;51.20;;;;;;4994487;28;20668;-70
2022/12/15 09:36:13;;;;;;;5.07;4.57;;;17.50;51.20;;;;;;5009874;28;20239;-70
2022/12/15 09:38:41;;;;;;;5.07;4.68;;;17.50;51.20;;;;;;4977420;28;20185;-70
2022/12/15 09:41:32;;;;;;;5.75;5.25;;;17.40;51.10;;;;;;4993351;28;20223;-70
2022/12/15 09:44:11;;;;;;;5.45;4.95;;;17.50;51.20;;;;;;5009778;28;20707;-70
2022/12/15 09:47:24;;;;;;;4.75;4.35;;;17.50;51.20;;;;;;4996956;23;20232;-68
2022/12/15 09:49:57;;;;;;;5.07;4.68;;;17.50;51.20;;;;;;4974179;28;20276;-67
2022/12/15 09:52:49;;;;;;;5.22;4.45;;;17.50;51.20;;;;;;4974264;28;20724;-68
2022/12/15 09:55:28;;;;;;;5.30;4.80;;;17.50;51.70;;;;;;4974220;28;20546;-67
2022/12/15 09:58:12;;;;;;;4.75;4.35;;;17.50;51.10;;;;;;4990313;28;20178;-68
2022/12/15 10:00:57;;;;;;;5.93;5.00;;;17.50;51.10;;;;;;4975086;28;20225;-67
2022/12/15 10:04:03;;;;;;;5.45;4.95;;;17.50;51.10;;;;;;4957955;28;20217;-67
2022/12/15 10:06:42;;;;;;;5.40;4.90;;;17.50;51.20;;;;;;4957722;28;20245;-67
2022/12/15 10:09:23;;;;;;;5.40;4.90;;;17.40;51.00;;;;;;4954184;28;20190;-69
2022/12/15 10:12:23;;;;;;;5.32;4.88;;;17.50;51.10;;;;;;4957775;28;20202;-67
2022/12/15 10:15:02;;;;;;;5.72;5.22;;;17.50;51.10;;;;;;4957439;28;20204;-67
2022/12/15 10:17:51;;;;;;;5.40;4.88;;;17.50;51.00;;;;;;4957567;28;20276;-69
2022/12/15 10:20:25;;;;;;;5.75;5.25;;;17.50;51.20;;;;;;4973583;28;20205;-67
2022/12/15 10:22:52;;;;;;;6.30;5.63;;;17.50;51.20;;;;;;4973078;28;20209;-67
2022/12/15 10:25:25;;;;;;;5.57;5.07;;;17.50;51.10;;;;;;4973534;28;20296;-67
2022/12/15 10:28:17;;;;;;;5.82;5.22;;;17.50;51.10;;;;;;4989739;28;20190;-67
2022/12/15 10:31:01;;;;;;;6.03;5.43;;;17.50;51.10;;;;;;4973139;28;20189;-67
2022/12/15 10:33:34;;;;;;;6.00;5.43;;;17.50;51.00;;;;;;4973249;28;20263;-67
2022/12/15 10:36:00;;;;;;;5.97;5.32;;;17.50;51.00;;;;;;4973282;28;20217;-67
2022/12/15 10:38:46;;;;;;;5.80;5.30;;;17.50;51.00;;;;;;4984917;28;20260;-67
2022/12/15 10:41:16;;;;;;;5.82;5.20;;;17.50;51.10;;;;;;4992204;28;20181;-67
2022/12/15 10:43:48;;;;;;;6.32;5.72;;;17.50;51.10;;;;;;4992317;28;20216;-68
2022/12/15 10:46:22;;;;;;;5.60;5.10;;;17.50;51.00;;;;;;4992168;28;20221;-67
2022/12/15 10:48:59;;;;;;;5.40;4.90;;;17.50;51.00;;;;;;4976251;28;20189;-69
2022/12/15 10:51:31;;;;;;;5.95;5.45;;;17.50;51.10;;;;;;4992260;28;20196;-67
2022/12/15 10:54:09;;;;;;;5.75;5.25;;;17.50;51.10;;;;;;4976705;28;20194;-67
2022/12/15 10:56:48;;;;;;;6.55;5.95;;;17.50;51.10;;;;;;4974662;28;20201;-67
2022/12/15 10:59:34;;;;;;;5.40;4.72;;;17.60;51.20;;;;;;4969629;28;20290;-67
2022/12/15 11:02:32;;;;;;;5.90;5.35;;;17.50;51.00;;;;;;4976850;28;20186;-67
2022/12/15 11:05:16;;;;;;;5.63;5.13;;;17.50;51.00;;;;;;4956783;28;20205;-66
2022/12/15 11:07:51;;;;;;;6.43;5.28;;;17.60;51.10;;;;;;4972397;28;20268;-67
2022/12/15 11:10:21;;;;;;;5.72;5.13;;;17.50;51.00;;;;;;4967012;28;20194;-68
2022/12/15 11:13:14;;;;;;;5.40;5.00;;;17.60;51.10;;;;;;4959356;28;20193;-67
2022/12/15 11:15:45;;;;;;;5.78;5.28;;;17.50;51.00;;;;;;4939963;28;20210;-67
2022/12/15 11:18:43;;;;;;;5.78;5.28;;;17.50;51.00;;;;;;4953555;29;20217;-67
2022/12/15 11:21:23;;;;;;;5.88;5.28;;;17.50;51.00;;;;;;4972547;28;20194;-67
2022/12/15 11:24:17;;;;;;;6.50;5.38;;;17.50;51.00;;;;;;4988173;28;20241;-67
2022/12/15 11:26:57;;;;;;;5.72;5.22;;;17.50;51.00;;;;;;4972571;28;20715;-67
2022/12/15 11:29:55;;;;;;;6.40;5.80;;;17.50;51.00;;;;;;4984230;28;20189;-66
2022/12/15 11:32:27;;;;;;;5.88;5.38;;;17.50;51.00;;;;;;4956516;28;20641;-67
2022/12/15 11:34:54;;;;;;;5.35;4.95;;;17.50;51.00;;;;;;4972925;28;20318;-67
2022/12/15 11:37:43;;;;;;;5.93;5.43;;;17.50;51.00;;;;;;4972472;28;20344;-67
2022/12/15 11:40:20;;;;;;;6.00;5.40;;;17.50;51.20;;;;;;4956529;28;20241;-67
2022/12/15 11:42:52;;;;;;;6.03;5.43;;;17.50;51.10;;;;;;4973601;28;20193;-68
2022/12/15 11:46:00;;;;;;;6.07;5.47;;;17.50;51.10;;;;;;4972449;28;20601;-67
2022/12/15 11:49:04;;;;;;;5.88;5.28;;;17.50;51.00;;;;;;4956750;28;20638;-67
2022/12/15 11:51:57;;;;;;;6.20;5.60;;;17.50;51.00;;;;;;4972523;28;20177;-67
2022/12/15 11:54:48;;;;;;;5.57;5.07;;;17.50;51.00;;;;;;4972734;28;20178;-67
2022/12/15 11:57:48;;;;;;;6.30;5.70;;;17.50;51.00;;;;;;4972571;28;20288;-67
2022/12/15 12:00:20;;;;;;;6.70;5.80;;;17.50;51.00;;;;;;4973741;28;20178;-67
2022/12/15 12:02:58;;;;;;;5.47;4.97;;;17.50;51.00;;;;;;4956106;28;20221;-67
2022/12/15 12:05:50;;;;;;;5.32;4.85;;;17.50;51.00;;;;;;4956414;28;20201;-67
2022/12/15 12:08:42;;;;;;;5.05;4.65;;;17.50;51.00;;;;;;4972652;28;20174;-67
2022/12/15 12:11:26;;;;;;;4.93;4.50;;;17.60;51.10;;;;;;4973384;28;20174;-67
2022/12/15 12:14:14;;;;;;;5.90;5.40;;;17.60;51.10;;;;;;4976360;28;20185;-67
2022/12/15 12:16:56;;;;;;;5.97;5.30;;;17.50;51.00;;;;;;4960688;28;20216;-68
2022/12/15 12:19:41;;;;;;;4.97;4.57;;;17.60;51.10;;;;;;4960841;28;20630;-67
2022/12/15 12:22:26;;;;;;;5.43;4.93;;;17.50;51.00;;;;;;4968257;28;20189;-67
2022/12/15 12:25:24;;;;;;;5.18;4.68;;;17.50;51.00;;;;;;4973288;28;20190;-67
2022/12/15 12:28:16;;;;;;;5.38;4.90;;;17.60;51.00;;;;;;4966119;28;20256;-67
2022/12/15 12:30:46;;;;;;;5.03;4.53;;;17.50;50.90;;;;;;4959422;28;20192;-67
2022/12/15 12:33:44;;;;;;;5.32;4.82;;;17.50;51.00;;;;;;4977599;28;20325;-67
2022/12/15 12:36:13;;;;;;;5.20;4.55;;;17.50;51.00;;;;;;4972822;28;20210;-67
2022/12/15 12:38:45;;;;;;;4.78;4.38;;;17.60;51.10;;;;;;4952293;28;20206;-67
2022/12/15 12:41:44;;;;;;;5.35;4.85;;;17.50;51.00;;;;;;4985432;28;20200;-67
2022/12/15 12:44:28;;;;;;;5.57;5.07;;;17.60;51.00;;;;;;4960046;28;20209;-67
2022/12/15 12:46:57;;;;;;;5.03;4.57;;;17.50;51.00;;;;;;4959932;28;20320;-67
2022/12/15 12:49:41;;;;;;;4.40;4.00;;;17.50;51.00;;;;;;4977166;28;20182;-67
2022/12/15 12:52:27;;;;;;;4.70;4.30;;;17.50;51.00;;;;;;4975724;28;20190;-67
2022/12/15 12:55:11;;;;;;;4.80;4.40;;;17.50;51.00;;;;;;4975684;28;20717;-67
2022/12/15 12:57:46;;;;;;;4.50;4.10;;;17.50;51.00;;;;;;4975731;28;20193;-67
2022/12/15 13:00:20;;;;;;;4.60;4.20;;;17.50;51.00;;;;;;4976528;28;20204;-67
2022/12/15 13:03:13;;;;;;;4.43;4.03;;;17.50;51.00;;;;;;4975148;28;20221;-64
2022/12/15 13:05:40;;;;;;;4.10;3.70;;;17.50;51.00;;;;;;4975675;28;20205;-69
2022/12/15 13:08:09;;;;;;;4.78;4.35;;;17.50;51.00;;;;;;4953918;28;20182;-67
2022/12/15 13:10:38;;;;;;;4.03;3.67;;;17.50;51.00;;;;;;4975379;28;20190;-67
2022/12/15 13:13:28;;;;;;;4.70;4.22;;;17.50;51.10;;;;;;4974812;28;20182;-67
2022/12/15 13:16:21;;;;;;;4.22;3.90;;;17.50;51.10;;;;;;4974777;28;20221;-67
2022/12/15 13:19:03;;;;;;;5.03;4.53;;;17.50;51.10;;;;;;4974760;28;20292;-67
2022/12/15 13:21:44;;;;;;;4.68;4.20;;;17.50;51.10;;;;;;4976193;28;20194;-68
2022/12/15 13:24:29;;;;;;;4.05;3.75;;;17.50;51.00;;;;;;4976081;28;20217;-67
2022/12/15 13:27:07;;;;;;;4.10;3.80;;;17.50;51.00;;;;;;4974664;28;20244;-66
2022/12/15 13:29:33;;;;;;;4.40;4.00;;;17.50;51.00;;;;;;4975000;28;20186;-68
2022/12/15 13:32:00;;;;;;;3.75;3.45;;;17.50;51.10;;;;;;4974142;28;20189;-66
2022/12/15 13:34:34;;;;;;;4.13;3.83;;;17.50;51.10;;;;;;4974743;28;20200;-68
2022/12/15 13:37:00;;;;;;;4.43;4.03;;;17.50;51.10;;;;;;4958585;28;20312;-66
2022/12/15 13:39:29;;;;;;;4.78;3.88;;;17.50;51.10;;;;;;4955722;28;20186;-68
2022/12/15 13:42:15;;;;;;;4.25;3.85;;;17.50;51.10;;;;;;4989590;28;20617;-67
2022/12/15 13:44:47;;;;;;;3.83;3.53;;;17.50;51.10;;;;;;4973832;28;20779;-67
2022/12/15 13:47:22;;;;;;;4.55;4.15;;;17.50;51.10;;;;;;4966295;28;20210;-68
2022/12/15 13:50:15;;;;;;;4.43;4.03;;;17.50;51.10;;;;;;4974724;28;20217;-67
2022/12/15 13:52:49;;;;;;;4.88;3.60;;;17.50;51.00;;;;;;4974353;28;20189;-67
2022/12/15 13:55:23;;;;;;;4.82;4.00;;;17.50;51.10;;;;;;4964639;28;20208;-68
2022/12/15 13:57:57;;;;;;;4.07;3.78;;;17.50;51.10;;;;;;4958256;28;20215;-67
2022/12/15 14:00:23;;;;;;;3.95;3.60;;;17.50;51.10;;;;;;4974747;28;20216;-68
2022/12/15 14:02:49;;;;;;;4.13;3.83;;;17.50;51.20;;;;;;4974079;28;20217;-67
2022/12/15 14:05:21;;;;;;;3.85;3.55;;;17.50;51.20;;;;;;4964162;28;20560;-67
2022/12/15 14:07:59;;;;;;;4.30;3.90;;;17.50;51.10;;;;;;4975241;28;20170;-67
2022/12/15 14:10:49;;;;;;;4.63;4.00;;;17.50;51.10;;;;;;4974432;28;20177;-67
2022/12/15 14:13:24;;;;;;;4.13;3.83;;;17.50;51.10;;;;;;4973970;28;20178;-67
2022/12/15 14:16:02;;;;;;;3.63;3.33;;;17.50;51.10;;;;;;4973831;28;20228;-67
2022/12/15 14:18:37;;;;;;;4.13;3.72;;;17.50;51.00;;;;;;4974342;28;20185;-68
2022/12/15 14:21:23;;;;;;;4.65;4.25;;;17.50;51.10;;;;;;4958322;28;20181;-68
2022/12/15 14:23:49;;;;;;;3.78;3.47;;;17.50;51.10;;;;;;4973869;28;20201;-68
2022/12/15 14:26:15;;;;;;;4.13;3.83;;;17.50;51.20;;;;;;4958064;28;20201;-68
2022/12/15 14:28:46;;;;;;;3.88;3.58;;;17.50;51.20;;;;;;4975339;28;20206;-68
2022/12/15 14:31:23;;;;;;;4.72;4.20;;;17.50;51.20;;;;;;4952813;28;20212;-68
2022/12/15 14:34:02;;;;;;;4.32;3.92;;;17.50;51.10;;;;;;4972806;28;20195;-68
2022/12/15 14:36:31;;;;;;;4.35;3.95;;;17.50;51.10;;;;;;4969848;28;20205;-68
2022/12/15 14:39:06;;;;;;;4.63;4.22;;;17.50;51.10;;;;;;4974099;28;20588;-68
2022/12/15 14:41:42;;;;;;;4.28;3.92;;;17.50;51.10;;;;;;4957460;28;20182;-68
2022/12/15 14:44:26;;;;;;;4.07;3.72;;;17.50;51.20;;;;;;4974777;28;20253;-68
2022/12/15 14:46:52;;;;;;;4.35;3.95;;;17.50;51.20;;;;;;4957579;28;20252;-68
2022/12/15 14:49:31;;;;;;;4.00;3.60;;;17.50;51.20;;;;;;4984255;28;20176;-68
2022/12/15 14:52:03;;;;;;;4.30;3.90;;;17.50;51.20;;;;;;4994020;28;20173;-68
2022/12/15 14:54:50;;;;;;;4.53;4.13;;;17.50;51.20;;;;;;4994086;28;20185;-68
2022/12/15 14:57:25;;;;;;;4.53;4.13;;;17.40;51.10;;;;;;4992817;28;20213;-68
2022/12/15 14:59:52;;;;;;;4.63;4.22;;;17.50;51.10;;;;;;4992865;28;20247;-67
2022/12/15 15:02:28;;;;;;;3.95;3.65;;;17.50;51.10;;;;;;4986960;28;20184;-68
2022/12/15 15:05:06;;;;;;;4.85;3.92;;;17.50;51.10;;;;;;4972949;28;20200;-67
2022/12/15 15:07:36;;;;;;;4.57;4.10;;;17.50;51.10;;;;;;4973367;28;20191;-67
2022/12/15 15:10:21;;;;;;;4.93;4.50;;;17.50;51.20;;;;;;4973108;28;20170;-68
2022/12/15 15:12:48;;;;;;;4.50;4.10;;;17.50;51.10;;;;;;4972955;28;20188;-68
2022/12/15 15:15:18;;;;;;;4.18;3.78;;;17.50;51.20;;;;;;4972914;28;20200;-67
2022/12/15 15:17:51;;;;;;;4.28;3.88;;;17.50;51.20;;;;;;4974195;28;20235;-68
2022/12/15 15:20:31;;;;;;;4.28;3.88;;;17.50;51.20;;;;;;4967178;28;20248;-67
2022/12/15 15:23:18;;;;;;;4.25;3.85;;;17.40;51.10;;;;;;4952582;29;20300;-66
2022/12/15 15:25:53;;;;;;;4.00;3.70;;;17.40;51.00;;;;;;4954059;29;20289;-68
2022/12/15 15:28:18;;;;;;;4.25;3.88;;;17.50;51.20;;;;;;4953646;28;20273;-67
2022/12/15 15:31:04;;;;;;;4.60;4.18;;;17.50;51.20;;;;;;4969409;28;20306;-67
2022/12/15 15:33:30;;;;;;;5.82;4.43;;;17.50;51.20;;;;;;4953321;29;20186;-67
2022/12/15 15:36:01;;;;;;;5.28;4.55;;;17.50;51.20;;;;;;4969433;28;20237;-69
2022/12/15 15:38:36;;;;;;;4.60;4.20;;;17.40;51.10;;;;;;4953556;29;20254;-68
2022/12/15 15:41:20;;;;;;;4.68;4.28;;;17.50;51.20;;;;;;4953739;29;20186;-67
2022/12/15 15:43:46;;;;;;;4.40;4.00;;;17.40;51.10;;;;;;4969191;28;20288;-68
2022/12/15 15:46:19;;;;;;;4.47;4.07;;;17.50;51.20;;;;;;4954278;28;20207;-68